Latest Observation

40 Stations

Daily Data | America/Los_Angeles
as of 12/2/22 6:07 AM PST
Station Date Daily Max Temp (°F) Time of Max Temp Daily Min Temp (°F) Time of Min Temp Daily Rain (In) Month Precip (In) Season Precip (In) Daily ETo (in) 7 Day ETo (in) Daily Solar Rad (Cal/cm2) Wind Spd (mph) Daily Max Wind (mph) Time of Max Wind Max Wind Dir (°) Dew Pt (°F) Max RH (%) Min RH (%) Hrs 70-85F (hrs) Hrs > 95F (hrs) Powdery Mildew Stress (pts) Hrs <= 32F (hrs) Hrs <= 28F (hrs) GDDs (DL) Chilling <=45F (hrs) Chilling <=45F Seas (hrs) Daily Leaf Wet Hrs (hrs) Daily Max CanT (°F) Daily Min CanT (°F) MinBV Day (V) Max 1 Min Rain (In) Max 1 Min Rain Time Max 15 Min Rain (In) Max 15 Min Precip Time Max 60 Min Rain (In) Max 60 Min Rain Time
Colony 1 12/1/22 50.5 0455 33.4 2358 0.80 0.80 2.33 0.012 0.35 23 4.7 21.5 0856 ESE | 116 42.2 99 62 0.00 0.00 - 0.0 0.0 0.0 6.1 341 - - - 12.5 0.01 1344 0.06 1208 0.20 1239
Colony 2 12/1/22 49.8 0354 33.9 2359 0.73 0.73 2.14 0.015 0.36 23 5.7 24.3 0941 SSE | 152 41.6 97 62 0.00 0.00 - 0.0 0.0 0.0 6.2 350 - - - 12.5 0.01 1345 0.06 1202 0.18 1241
Gill Ranch 12/1/22 51.0 0328 35.5 2359 1.01 1.01 2.17 0.015 0.40 26 6.5 25.5 0920 SSE | 152 41.7 97 60 0.00 0.00 - 0.0 0.0 0.1 6.3 329 - - - 12.7 0.01 1623 0.06 1222 0.21 1256
5 Wells 12/1/22 49.8 0441 34.1 2355 0.80 0.80 2.22 0.015 0.38 29 5.8 27.3 0953 SE | 142 41.2 100 60 0.00 0.00 - 0.0 0.0 0.0 9.3 368 - - - 12.2 0.01 1510 0.06 1219 0.19 1252
Simmerhorn 12/1/22 49.7 0458 34.8 2306 - - - - - - - - - - 42.6 100 63 0.00 0.00 - 0.0 0.0 0.0 9.4 348 - - - 12.2 - - - - - -
Galt-East 12/1/22 50.1 0448 34.4 2358 0.54 0.54 1.84 0.012 0.35 23 5.1 25.2 1015 ESE | 122 42.0 99 65 0.00 0.00 - 0.0 0.0 0.0 9.2 333 - - - 11.9 0.01 2157 0.07 1339 0.16 1232
Borden Hills 12/1/22 50.8 0307 36.7 2338 0.95 0.95 2.71 0.018 0.40 23 6.9 30.1 0837 SE | 135 41.6 94 62 0.00 0.00 - 0.0 0.0 0.1 8.8 304 - - - 12.4 0.01 1637 0.05 1038 0.19 1037
Sierra Loma-L27 12/1/22 50.1 0328 36.3 2348 0.95 0.95 2.63 - - - 5.8 27.7 1018 SSE | 152 41.6 96 64 0.00 0.00 - 0.0 0.0 0.0 9.4 319 - - - 12.4 0.01 1629 0.07 1150 0.21 1235
Lone Oak-L28 12/1/22 48.4 0516 30.4 2333 0.97 0.97 2.57 - - - 5.5 26.1 0916 SE | 128 40.1 98 69 0.00 0.00 - 1.2 0.0 0.0 10.4 403 - - - 11.8 0.01 1643 0.07 1403 0.20 1055
Lockeford 12/1/22 49.3 1130 34.3 2301 0.99 0.99 2.68 0.012 0.35 24 4.5 24.6 1104 SSE | 161 40.5 93 66 0.00 0.00 - 0.0 0.0 0.0 10.6 361 18.8 106.7 - 11.9 0.01 2121 0.06 1337 0.19 1034
Kost Rd 12/1/22 50.2 0508 32.5 2357 0.60 0.60 1.89 0.012 0.35 26 4.0 21.9 0709 SE | 133 42.1 100 69 0.00 0.00 - 0.0 0.0 0.0 7.7 336 - - - 12.3 0.01 1339 0.06 1154 0.17 1231
Thornton 12/1/22 49.8 0521 30.8 2359 0.57 0.57 1.49 0.013 0.38 8 3.9 19.8 0706 SE | 130 39.2 90 65 0.00 0.00 - 1.0 0.0 0.0 8.1 357 17.0 - - 12.3 0.01 1327 0.06 1024 0.17 1109
Lodi (LangeTwins) 12/1/22 49.6 0503 31.9 2333 0.66 0.66 2.23 0.012 0.35 26 4.4 22.2 0946 SSE | 151 41.7 100 70 0.00 0.00 - 0.1 0.0 0.0 7.8 357 10.8 - - 12.1 0.01 1451 0.06 1203 0.19 1200
Gilbeau Ranch 12/1/22 49.4 0510 34.2 2346 0.82 0.82 2.29 0.015 0.34 21 5.3 24.7 1036 SSE | 157 40.7 96 60 0.00 0.00 - 0.0 0.0 0.0 8.6 344 - - - 12.0 0.01 1533 0.07 1208 0.19 1250
Galt West 12/1/22 49.6 0526 31.2 2359 0.56 0.56 2.32 0.015 0.35 29 4.8 19.5 0922 SSE | 152 41.1 96 68 0.00 0.00 - 0.3 0.0 0.0 8.3 357 - - - 12.4 0.01 1330 0.05 1155 0.17 1158
Valley Oak 12/1/22 49.3 0517 30.3 2351 0.60 0.60 1.97 0.010 0.36 28 3.6 18.3 0732 SE | 125 41.0 100 64 0.00 0.00 - 1.3 0.0 0.0 8.3 372 - - - 11.9 0.01 1355 0.06 1152 0.17 1214
Guard Rd (Lodi WSW) 12/1/22 50.2 0656 31.6 2345 0.61 0.61 1.33 0.015 0.37 27 3.7 19.8 0912 SE | 130 40.4 97 67 0.00 0.00 - 0.1 0.0 0.0 9.8 368 3.4 50.1 30.6 11.9 0.01 1439 0.06 1042 0.20 1114
Linden 12/1/22 49.2 1059 34.3 2239 1.16 1.16 2.94 - - - 3.5 16.0 1130 SSW | 192 41.7 99 66 0.00 0.00 - 0.0 0.0 0.0 9.4 372 18.6 - - 12.5 0.02 1344 0.12 1355 0.22 1422
DeVries Road-North 12/1/22 49.5 0505 32.1 2358 0.60 0.60 2.10 0.013 0.36 28 5.0 24.6 0936 SE | 144 41.2 99 69 0.00 0.00 - 0.0 0.0 0.0 8.1 364 - - - 12.4 0.01 1456 0.05 1201 0.17 1214
Acampo 12/1/22 49.5 0455 32.4 2330 0.62 0.62 1.90 0.011 0.35 24 3.3 17.8 0954 SSE | 148 40.8 100 61 0.00 0.00 - 0.0 0.0 0.0 9.6 369 18.5 - - 13.8 0.01 2304 0.06 1153 0.18 1211
Acampo (Woodbridge) 12/1/22 48.9 0505 36.6 0001 0.69 0.69 2.02 0.013 0.37 22 5.9 25.2 0827 ESE | 114 41.7 100 68 0.00 0.00 - 0.0 0.0 0.0 7.6 302 - - - 12.2 0.01 1621 0.06 1317 0.18 1224
Lodi West 12/1/22 49.6 0513 35.1 2356 0.60 0.60 2.09 0.011 0.33 26 2.8 19.8 0734 SSE | 148 40.3 95 63 0.00 0.00 - 0.0 0.0 0.0 8.6 316 7.6 - - 12.1 0.01 1620 0.06 1144 0.20 1201
Teresi-Alpine Rd (East Lodi) 12/1/22 57.1 0001 57.1 0001 0.83 0.83 2.35 0.091 0.50 23 4.3 21.0 1000 ESE | 113 -23.2 3 3 0.00 0.00 - 0.0 0.0 7.1 0.0 223 - - - 12.4 0.01 1622 0.07 1328 0.19 1344
Victor - N (Katusha) 12/1/22 48.9 1100 34.9 2350 0.73 0.73 2.21 - - - 4.4 22.2 1031 SE | 138 40.2 97 62 0.00 0.00 0 0.0 0.0 0.0 9.6 - - - - 12.7 - - - - - -
Live Oak 12/1/22 49.1 0422 32.4 2352 0.77 0.77 2.34 0.008 0.34 24 3.8 17.6 1041 SSE | 162 41.8 100 64 0.00 0.00 - 0.0 0.0 0.0 10.6 370 - - - 12.5 0.01 1602 0.07 1333 0.20 1342
Sheldon 12/1/22 50.3 0353 32.4 2351 0.60 0.60 2.20 0.014 0.36 27 5.4 24.6 0818 SSE | 166 41.3 99 60 0.00 0.00 - 0.0 0.0 0.0 8.1 374 19.2 50.6 32.2 12.6 0.01 1411 0.09 1039 0.22 1123
Sloughhouse 12/1/22 51.2 0350 31.8 2359 0.75 0.75 2.44 0.014 0.37 21 5.7 26.6 0959 SSE | 167 41.8 100 58 0.00 0.00 - 0.0 0.0 0.0 8.0 381 - - - 12.2 0.01 1414 0.05 1222 0.18 1219
Utter - Wilson 12/1/22 49.7 1235 31.0 2352 0.42 0.42 2.84 0.014 0.40 47 5.0 20.4 0705 SE | 138 42.0 100 75 0.00 0.00 - 0.3 0.0 0.0 7.4 336 - - - 12.4 0.01 1212 0.05 0925 0.16 1001
Clarksburg 12/1/22 50.6 1255 35.2 2141 0.41 0.41 2.42 0.024 0.40 41 6.6 26.0 0700 SSE | 149 40.6 93 64 0.00 0.00 - 0.0 0.0 0.0 7.3 302 - - - 12.3 0.01 1206 0.06 0938 0.14 1025
Clarksburg-3A2 12/1/22 49.7 1416 33.0 2359 0.42 0.42 1.30 0.019 0.40 36 7.3 28.0 0734 ESE | 112 41.2 99 66 0.00 0.00 - 0.0 0.0 0.0 7.1 306 - - - 12.6 0.01 1248 0.07 0937 0.15 1025
Gorter - Wilson 12/1/22 49.4 0726 29.6 2348 0.42 0.42 2.20 0.012 0.35 31 5.3 24.0 0743 SE | 140 41.5 100 76 0.00 0.00 - 1.0 0.0 0.0 8.8 355 - - - 12.4 0.01 1218 0.06 0943 0.14 1025
Hood 12/1/22 49.8 0732 31.1 2318 0.46 0.46 2.01 0.012 0.37 37 4.4 17.8 0702 SSE | 162 41.7 100 73 0.00 0.00 - 0.5 0.0 0.0 8.8 347 - - - 12.3 0.01 1239 0.09 0944 0.18 1028
Courtland-C3 12/1/22 48.7 1454 31.1 2339 0.46 0.46 2.14 - - - 6.4 23.3 0747 SE | 145 40.4 97 72 0.00 0.00 - 0.2 0.0 0.0 10.4 351 - - - 12.4 0.01 1239 0.07 0950 0.17 1031
Pacific Fruit 12/1/22 49.7 1401 30.2 2359 0.44 0.44 2.22 0.014 0.37 37 4.7 19.7 0748 S | 179 42.0 98 74 0.00 0.00 - 0.2 0.0 0.0 7.7 334 - - - 12.2 0.01 1241 0.06 0948 0.15 1014
Ryer Island South 12/1/22 51.1 0703 38.5 2335 0.59 0.59 2.63 0.016 0.41 38 3.4 16.7 0713 SE | 127 41.6 96 68 0.00 0.00 - 0.0 0.0 0.0 5.2 309 18.2 - - 12.0 0.01 1254 0.09 0941 0.21 1006
Farmington (Mobley100) 12/1/22 49.4 1402 35.1 2358 - - - - - - 2.3 15.9 1024 SSE | 163 41.5 98 68 0.00 0.00 - 0.0 0.0 0.0 11.0 366 - - - 12.4 - - - - - -
Collegeville 12/1/22 49.9 1358 33.9 0001 0.86 0.86 2.15 0.010 0.34 26 2.6 15.9 0922 SE | 143 41.6 99 69 0.00 0.00 - 0.0 0.0 0.0 9.8 371 - - - 12.4 0.01 1720 0.08 1417 0.16 1418
Oakdale North (28 Mile Rd) 12/1/22 49.2 1501 33.4 2354 - - - - - - 2.4 16.3 1229 E | 99 41.5 97 69 0.00 0.00 - 0.0 0.0 0.0 10.5 354 - - - 12.6 - - - - - -
Escalon 12/1/22 50.2 1356 34.8 2356 0.89 0.89 2.12 - - - 2.5 17.0 1008 ESE | 103 42.2 100 70 0.00 0.00 - 0.0 0.0 0.0 9.5 361 16.6 - - 12.2 0.01 1955 0.09 1511 0.20 1555
Claussen 12/1/22 51.7 0549 38.6 0106 0.55 0.55 1.73 0.015 0.35 30 3.6 19.2 0822 ESE | 123 41.8 96 65 0.00 0.00 - 0.0 0.0 0.1 7.5 303 - - - 12.3 0.01 1604 0.06 1306 0.15 1347
Max   57.1 - 57.1 - 1.16 1.16 2.94 0.091 0.50 47 7.3 30.1 - - 42.6 100 76 0.00 0.00 - 1.3 0.0 7.1 11.0 - 19.2 106.7 32.2 13.8 0.02 - 0.12 - 0.22 -
Avg   - - - - - - - - - - 4.6 - - - 39.7 - - 0.00 0.00 - 0.2 0.0 0.2 8.4 - - - - - - - - - - -
Min   48.4 - 29.6 - 0.41 0.41 1.30 0.008 0.33 8 2.3 15.9 - - -23.2 3 3 0.00 0.00 - 0.0 0.0 0.0 0.0 - 3.4 50.1 30.6 11.8 0.01 - 0.05 - 0.14 -